Terminal Aerodrome Forecast
Issued by NWS Jacksonville, FL

Home | Current Version | Previous Version | Text Only | Print | Product List | Glossary On
Versions: 1 2 3 4 5 6 7 8 9 10 11 12 13 14 15 16 17 18 19
000
FTUS42 KJAX 231120
TAFGNV
TAF
KGNV 231120Z 2312/2412 11003KT 1/2SM FG VV004
     FM231430 12007KT P6SM SCT030 BKN080
     FM240200 VRB04KT P6SM SKC
     FM240600 VRB02KT 2SM BR SCT005=

USA.gov is the U.S. government's official web portal to all federal, state and local government web resources and services.